createdAt,value
2022-11-05T00:01:48.284Z,97911.38
2022-11-05T00:04:32.952Z,97913.09
2022-11-05T00:07:26.265Z,97901.94
2022-11-05T00:10:01.646Z,97902.06
2022-11-05T00:12:46.590Z,97902.13
2022-11-05T00:15:31.420Z,97918.56
2022-11-05T00:17:57.836Z,97916.94
2022-11-05T00:20:24.300Z,97922.06
2022-11-05T00:23:09.954Z,97922.13
2022-11-05T00:25:36.520Z,97931.56
2022-11-05T00:28:03.573Z,97934.19
2022-11-05T00:30:30.562Z,97935.97
2022-11-05T00:33:02.681Z,97938.56
2022-11-05T00:35:30.213Z,97945.47
2022-11-05T00:37:56.637Z,97943.69
2022-11-05T00:40:23.103Z,97952.22
2022-11-05T00:43:08.427Z,97946.19
2022-11-05T00:45:35.063Z,97950.44
2022-11-05T00:48:20.161Z,97959.88
2022-11-05T00:50:46.550Z,97954.75
2022-11-05T00:53:13.267Z,97954.75
2022-11-05T00:55:42.842Z,97959.00
2022-11-05T00:58:20.185Z,97959.00
2022-11-05T01:01:00.718Z,97963.25
2022-11-05T01:03:37.250Z,97962.34
2022-11-05T01:06:13.167Z,97968.22
2022-11-05T01:08:40.603Z,97969.94
2022-11-05T01:11:12.747Z,97971.69
2022-11-05T01:13:40.232Z,97963.09
2022-11-05T01:16:09.114Z,97975.91
2022-11-05T01:18:38.819Z,97975.03
2022-11-05T01:21:13.665Z,97983.59
2022-11-05T01:23:40.394Z,97984.41
2022-11-05T01:26:07.009Z,97980.06
2022-11-05T01:28:33.527Z,97987.78
2022-11-05T01:31:00.018Z,97985.19
2022-11-05T01:33:26.471Z,97987.69
2022-11-05T01:35:53.447Z,97990.22
2022-11-05T01:38:19.857Z,97995.31
2022-11-05T01:40:46.513Z,98001.28
2022-11-05T01:43:18.540Z,98003.03
2022-11-05T01:45:49.589Z,98008.94
2022-11-05T01:48:33.398Z,98017.44
2022-11-05T01:51:07.332Z,98010.56
2022-11-05T01:53:40.556Z,98013.06
2022-11-05T01:56:16.838Z,98016.47
2022-11-05T01:58:48.689Z,98012.16
2022-11-05T02:01:15.817Z,98019.91
2022-11-05T02:03:43.284Z,98017.25
2022-11-05T02:06:10.550Z,98028.28
2022-11-05T02:08:51.538Z,98018.84
2022-11-05T02:11:19.683Z,98023.97
2022-11-05T02:13:47.461Z,98023.97
2022-11-05T02:16:25.374Z,98033.31
2022-11-05T02:18:58.436Z,98029.03
2022-11-05T02:21:33.537Z,98032.50
2022-11-05T02:24:24.837Z,98026.53
2022-11-05T02:27:09.578Z,98023.16
2022-11-05T02:29:55.334Z,98025.75
2022-11-05T02:32:45.760Z,98027.53
2022-11-05T02:35:23.232Z,98030.94
2022-11-05T02:37:54.295Z,98027.63
2022-11-05T02:40:45.578Z,98035.31
2022-11-05T02:43:24.491Z,98036.31
2022-11-05T02:46:08.803Z,98036.31
2022-11-05T02:48:55.004Z,98044.06
2022-11-05T02:51:24.180Z,98043.16
2022-11-05T02:54:03.537Z,98044.94
2022-11-05T02:56:38.091Z,98056.06
2022-11-05T02:59:04.524Z,98057.81
2022-11-05T03:01:31.041Z,98053.50
2022-11-05T03:04:03.520Z,98055.19
2022-11-05T03:07:01.216Z,98044.94
2022-11-05T03:09:57.077Z,98045.81
2022-11-05T03:12:41.783Z,98042.41
2022-11-05T03:15:34.060Z,98044.09
2022-11-05T03:18:21.761Z,98047.53
2022-11-05T03:21:00.863Z,98049.28
2022-11-05T03:23:42.652Z,98049.34
2022-11-05T03:26:19.567Z,98050.25
2022-11-05T03:28:54.690Z,98045.97
2022-11-05T03:31:23.183Z,98046.88
2022-11-05T03:33:53.328Z,98055.44
2022-11-05T03:36:26.547Z,98052.16
2022-11-05T03:38:55.717Z,98066.63
2022-11-05T03:41:23.994Z,98071.81
2022-11-05T03:43:55.101Z,98072.66
2022-11-05T03:46:34.194Z,98077.72
2022-11-05T03:49:04.324Z,98073.31
2022-11-05T03:51:54.231Z,98081.00
2022-11-05T03:54:21.066Z,98091.28
2022-11-05T03:57:07.522Z,98098.16
2022-11-05T03:59:41.278Z,98093.03
2022-11-05T04:02:08.645Z,98088.75
2022-11-05T04:04:35.397Z,98093.91
2022-11-05T04:07:20.468Z,98095.66
2022-11-05T04:10:05.435Z,98096.47
2022-11-05T04:12:50.330Z,98093.91
2022-11-05T04:15:16.811Z,98094.81
2022-11-05T04:17:43.219Z,98092.22
2022-11-05T04:20:28.192Z,98093.91
2022-11-05T04:23:20.962Z,98091.31
2022-11-05T04:25:47.466Z,98093.97
2022-11-05T04:28:14.127Z,98098.28
2022-11-05T04:30:40.970Z,98097.41
2022-11-05T04:33:11.104Z,98110.28
2022-11-05T04:35:55.932Z,98104.19
2022-11-05T04:38:22.458Z,98106.81
2022-11-05T04:40:48.936Z,98104.25
2022-11-05T04:43:18.321Z,98103.44
2022-11-05T04:45:46.028Z,98106.00
2022-11-05T04:48:12.505Z,98102.59
2022-11-05T04:50:39.343Z,98111.09
2022-11-05T04:53:05.750Z,98109.34
2022-11-05T04:55:32.370Z,98118.63
2022-11-05T04:57:58.754Z,98116.97
2022-11-05T05:00:25.258Z,98127.25
2022-11-05T05:02:51.932Z,98127.22
2022-11-05T05:05:18.500Z,98134.94
2022-11-05T05:07:44.943Z,98136.53
2022-11-05T05:10:11.988Z,98140.81
2022-11-05T05:12:38.631Z,98139.09
2022-11-05T05:15:05.405Z,98141.63
2022-11-05T05:17:31.874Z,98149.28
2022-11-05T05:20:17.032Z,98151.81
2022-11-05T05:22:43.540Z,98154.41
2022-11-05T05:25:09.948Z,98158.66
2022-11-05T05:27:36.461Z,98165.50
2022-11-05T05:30:03.443Z,98174.84
2022-11-05T05:32:29.818Z,98176.53
2022-11-05T05:34:56.361Z,98186.78
2022-11-05T05:37:22.869Z,98181.66
2022-11-05T05:39:49.772Z,98189.25
2022-11-05T05:42:16.297Z,98187.53
2022-11-05T05:44:42.682Z,98190.09
2022-11-05T05:47:09.113Z,98196.06
2022-11-05T05:49:35.506Z,98204.66
2022-11-05T05:52:01.985Z,98210.63
2022-11-05T05:54:32.724Z,98211.47
2022-11-05T05:57:00.645Z,98220.06
2022-11-05T05:59:27.094Z,98223.41
2022-11-05T06:01:53.677Z,98225.13
2022-11-05T06:04:20.657Z,98213.16
2022-11-05T06:06:47.193Z,98214.00
2022-11-05T06:09:14.453Z,98215.75
2022-11-05T06:11:41.397Z,98220.91
2022-11-05T06:14:12.210Z,98227.75
2022-11-05T06:16:39.733Z,98222.63
2022-11-05T06:19:06.745Z,98231.97
2022-11-05T06:21:33.645Z,98236.25
2022-11-05T06:24:01.934Z,98246.47
2022-11-05T06:29:56.326Z,98241.28
2022-11-05T06:32:22.775Z,98253.28
2022-11-05T06:34:49.249Z,98254.09
2022-11-05T06:37:15.715Z,98254.13
2022-11-05T06:39:42.120Z,98251.59
2022-11-05T06:42:23.879Z,98254.97
2022-11-05T06:44:50.343Z,98261.78
2022-11-05T06:47:16.831Z,98266.88
2022-11-05T06:49:43.280Z,98262.53
2022-11-05T06:52:09.720Z,98268.50
2022-11-05T06:54:36.154Z,98272.72
2022-11-05T06:57:04.410Z,98271.91
2022-11-05T06:59:30.801Z,98278.66
2022-11-05T07:01:57.690Z,98275.19
2022-11-05T07:04:24.162Z,98277.72
2022-11-05T07:06:50.559Z,98277.63
2022-11-05T07:09:16.946Z,98280.22
2022-11-05T07:11:43.347Z,98290.44
2022-11-05T07:14:09.747Z,98294.66
2022-11-05T07:16:36.151Z,98292.00
2022-11-05T07:19:02.959Z,98297.88
2022-11-05T07:21:29.549Z,98296.97
2022-11-05T07:23:55.937Z,98304.66
2022-11-05T07:26:22.342Z,98309.81
2022-11-05T07:28:48.713Z,98315.75
2022-11-05T07:31:15.171Z,98312.31
2022-11-05T07:33:41.561Z,98325.16
2022-11-05T07:36:11.163Z,98328.56
2022-11-05T07:38:37.560Z,98336.19
2022-11-05T07:41:31.206Z,98331.81
2022-11-05T07:43:57.631Z,98341.13
2022-11-05T07:46:24.034Z,98346.19
2022-11-05T07:48:50.545Z,98341.81
2022-11-05T07:51:16.920Z,98348.56
2022-11-05T07:53:45.496Z,98351.00
2022-11-05T07:56:12.938Z,98352.69
2022-11-05T07:58:39.385Z,98351.72
2022-11-05T08:01:07.130Z,98353.38
2022-11-05T08:03:34.270Z,98359.31
2022-11-05T08:06:00.886Z,98355.91
2022-11-05T08:08:27.406Z,98357.50
2022-11-05T08:10:53.818Z,98357.56
2022-11-05T08:13:20.207Z,98357.47
2022-11-05T08:15:46.730Z,98369.41
2022-11-05T08:18:15.957Z,98372.00
2022-11-05T08:20:46.860Z,98370.22
2022-11-05T08:23:14.244Z,98370.97
2022-11-05T08:25:41.943Z,98375.22
2022-11-05T08:28:11.891Z,98379.53
2022-11-05T08:30:38.457Z,98382.97
2022-11-05T08:33:08.658Z,98391.47
2022-11-05T08:35:36.448Z,98395.72
2022-11-05T08:38:05.166Z,98392.06
2022-11-05T08:40:33.732Z,98393.88
2022-11-05T08:43:00.869Z,98401.63
2022-11-05T08:45:27.879Z,98405.16
2022-11-05T08:48:01.907Z,98408.47
2022-11-05T08:50:28.748Z,98405.09
2022-11-05T08:52:55.639Z,98402.50
2022-11-05T08:55:22.339Z,98397.97
2022-11-05T08:57:48.886Z,98410.81
2022-11-05T09:00:15.652Z,98410.66
2022-11-05T09:02:42.179Z,98410.63
2022-11-05T09:05:08.979Z,98416.59
2022-11-05T09:07:35.624Z,98413.84
2022-11-05T09:10:02.112Z,98411.94
2022-11-05T09:12:28.524Z,98413.38
2022-11-05T09:14:54.938Z,98415.75
2022-11-05T09:17:22.112Z,98414.00
2022-11-05T09:19:48.670Z,98415.22
2022-11-05T09:22:15.085Z,98414.34
2022-11-05T09:24:43.268Z,98419.66
2022-11-05T09:27:10.588Z,98414.31
2022-11-05T09:29:37.032Z,98418.56
2022-11-05T09:32:03.659Z,98417.66
2022-11-05T09:34:30.087Z,98419.22
2022-11-05T09:36:57.222Z,98425.94
2022-11-05T09:39:24.423Z,98425.13
2022-11-05T09:41:54.067Z,98429.31
2022-11-05T09:44:54.923Z,98429.16
2022-11-05T09:47:27.366Z,98427.31
2022-11-05T09:49:55.748Z,98431.53
2022-11-05T09:52:30.483Z,98429.44
2022-11-05T09:54:57.691Z,98425.84
2022-11-05T09:57:44.018Z,98433.47
2022-11-05T10:00:16.848Z,98433.78
2022-11-05T10:02:50.895Z,98444.19
2022-11-05T10:05:18.805Z,98434.03
2022-11-05T10:08:29.980Z,98454.69
2022-11-05T10:11:03.558Z,98456.22
2022-11-05T10:13:35.320Z,98446.78
2022-11-05T10:16:20.717Z,98450.13
2022-11-05T10:18:52.730Z,98452.75
2022-11-05T10:21:37.808Z,98451.06
2022-11-05T10:24:13.441Z,98443.13
2022-11-05T10:26:39.861Z,98451.44
2022-11-05T10:29:06.422Z,98454.63
2022-11-05T10:31:35.918Z,98457.97
2022-11-05T10:34:06.680Z,98462.97
2022-11-05T10:36:35.842Z,98467.19
2022-11-05T10:39:11.059Z,98467.75
2022-11-05T10:42:01.322Z,98468.22
2022-11-05T10:44:33.830Z,98474.25
2022-11-05T10:47:15.414Z,98465.66
2022-11-05T10:49:59.927Z,98481.84
2022-11-05T10:52:31.845Z,98480.16
2022-11-05T10:55:01.423Z,98479.34
2022-11-05T10:57:27.772Z,98475.97
2022-11-05T11:00:17.083Z,98473.69
2022-11-05T11:02:59.813Z,98481.38
2022-11-05T11:05:36.094Z,98476.84
2022-11-05T11:08:11.551Z,98474.06
2022-11-05T11:10:47.974Z,98466.06
2022-11-05T11:13:23.277Z,98477.97
2022-11-05T11:15:51.077Z,98481.25
2022-11-05T11:18:40.209Z,98474.97
2022-11-05T11:21:14.311Z,98478.94
2022-11-05T11:23:43.035Z,98475.25
2022-11-05T11:26:11.726Z,98465.47
2022-11-05T11:28:46.041Z,98473.16
2022-11-05T11:31:17.605Z,98472.34
2022-11-05T11:33:51.317Z,98476.53
2022-11-05T11:36:24.465Z,98471.06
2022-11-05T11:38:51.420Z,98472.81
2022-11-05T11:41:17.793Z,98471.03
2022-11-05T11:43:44.993Z,98476.97
2022-11-05T11:46:21.011Z,98477.91
2022-11-05T11:48:49.082Z,98476.16
2022-11-05T11:51:19.959Z,98473.28
2022-11-05T11:53:49.920Z,98477.91
2022-11-05T11:56:21.624Z,98480.56
2022-11-05T11:58:53.168Z,98487.63
2022-11-05T12:01:38.492Z,98485.97
2022-11-05T12:04:17.152Z,98487.38
2022-11-05T12:06:54.646Z,98486.97
2022-11-05T12:09:53.721Z,98477.72
2022-11-05T12:13:02.226Z,98481.50
2022-11-05T12:15:48.102Z,98478.22
2022-11-05T12:18:22.734Z,98482.66
2022-11-05T12:21:04.080Z,98474.41
2022-11-05T12:23:38.945Z,98471.31
2022-11-05T12:26:11.439Z,98479.91
2022-11-05T12:29:18.041Z,98479.75
2022-11-05T12:32:11.484Z,98480.88
2022-11-05T12:35:03.452Z,98480.59
2022-11-05T12:37:41.381Z,98483.25
2022-11-05T12:40:25.585Z,98470.34
2022-11-05T12:43:26.122Z,98479.94
2022-11-05T12:46:31.591Z,98475.06
2022-11-05T12:49:13.130Z,98477.31
2022-11-05T12:52:05.165Z,98482.28
2022-11-05T12:55:03.336Z,98485.59
2022-11-05T12:57:33.132Z,98489.50
2022-11-05T13:00:10.479Z,98488.06
2022-11-05T13:02:47.820Z,98487.63
2022-11-05T13:05:26.480Z,98488.56
2022-11-05T13:08:07.619Z,98492.06
2022-11-05T13:10:37.093Z,98489.09
2022-11-05T13:13:11.375Z,98490.25
2022-11-05T13:15:44.155Z,98496.59
2022-11-05T13:18:16.490Z,98500.38
2022-11-05T13:20:49.108Z,98496.53
2022-11-05T13:23:41.478Z,98498.50
2022-11-05T13:26:20.193Z,98508.03
2022-11-05T13:29:03.621Z,98503.88
2022-11-05T13:31:39.030Z,98502.19
2022-11-05T13:34:11.124Z,98500.56
2022-11-05T13:37:03.133Z,98507.56
2022-11-05T13:39:35.385Z,98501.56
2022-11-05T13:42:13.562Z,98502.56
2022-11-05T13:44:59.454Z,98505.16
2022-11-05T13:47:49.014Z,98501.75
2022-11-05T13:50:24.445Z,98505.34
2022-11-05T13:53:23.382Z,98509.69
2022-11-05T13:56:20.012Z,98506.28
2022-11-05T13:58:58.936Z,98508.09
2022-11-05T14:01:44.281Z,98500.53
2022-11-05T14:04:19.738Z,98504.84
2022-11-05T14:06:46.515Z,98503.69
2022-11-05T14:09:19.822Z,98511.44
2022-11-05T14:11:53.635Z,98509.72
2022-11-05T14:14:27.383Z,98508.19
2022-11-05T14:17:14.276Z,98507.34
2022-11-05T14:20:08.107Z,98514.00
2022-11-05T14:22:37.681Z,98503.78
2022-11-05T14:25:25.222Z,98506.31
2022-11-05T14:27:52.416Z,98513.41
2022-11-05T14:30:47.204Z,98509.97
2022-11-05T14:33:15.105Z,98513.34
2022-11-05T14:35:41.688Z,98516.75
2022-11-05T14:38:21.610Z,98520.28
2022-11-05T14:40:48.907Z,98521.94
2022-11-05T14:43:18.954Z,98521.16
2022-11-05T14:45:55.978Z,98527.22
2022-11-05T14:48:46.988Z,98532.53
2022-11-05T14:51:33.220Z,98535.16
2022-11-05T14:54:03.537Z,98536.06
2022-11-05T14:56:53.279Z,98535.28
2022-11-05T14:59:25.546Z,98544.59
2022-11-05T15:01:56.568Z,98544.59
2022-11-05T15:04:31.668Z,98551.53
2022-11-05T15:07:04.302Z,98546.41
2022-11-05T15:10:10.057Z,98547.38
2022-11-05T15:12:54.450Z,98550.97
2022-11-05T15:15:22.106Z,98550.31
2022-11-05T15:18:01.554Z,98545.22
2022-11-05T15:20:49.710Z,98549.59
2022-11-05T15:23:20.485Z,98554.88
2022-11-05T15:26:02.212Z,98547.31
2022-11-05T15:28:36.307Z,98549.13
2022-11-05T15:31:22.750Z,98553.47
2022-11-05T15:33:49.253Z,98550.03
2022-11-05T15:36:31.268Z,98556.00
2022-11-05T15:41:45.047Z,98568.28
2022-11-05T15:44:45.005Z,98568.16
2022-11-05T15:47:24.812Z,98571.66
2022-11-05T15:50:15.660Z,98571.75
2022-11-05T15:52:51.603Z,98568.34
2022-11-05T15:55:23.580Z,98573.53
2022-11-05T15:57:54.167Z,98576.16
2022-11-05T16:00:23.301Z,98571.97
2022-11-05T16:03:06.539Z,98571.97
2022-11-05T16:05:43.995Z,98576.31
2022-11-05T16:08:21.682Z,98578.91
2022-11-05T16:10:53.818Z,98578.94
2022-11-05T16:13:38.781Z,98577.38
2022-11-05T16:16:22.634Z,98581.75
2022-11-05T16:18:49.136Z,98576.63
2022-11-05T16:21:24.355Z,98585.19
2022-11-05T16:24:00.592Z,98582.63
2022-11-05T16:27:02.346Z,98586.97
2022-11-05T16:29:28.381Z,98590.44
2022-11-05T16:31:56.514Z,98599.91
2022-11-05T16:34:41.533Z,98602.53
2022-11-05T16:37:12.698Z,98609.41
2022-11-05T16:39:39.149Z,98609.53
2022-11-05T16:42:24.428Z,98608.63
2022-11-05T16:44:52.920Z,98609.56
2022-11-05T16:47:19.705Z,98619.06
2022-11-05T16:49:48.063Z,98623.34
2022-11-05T16:52:15.225Z,98625.94
2022-11-05T16:54:42.196Z,98627.69
2022-11-05T16:57:37.514Z,98631.09
2022-11-05T17:00:05.261Z,98638.88
2022-11-05T17:02:31.941Z,98640.63
2022-11-05T17:04:58.436Z,98642.38
2022-11-05T17:07:24.856Z,98641.53
2022-11-05T17:09:51.254Z,98651.81
2022-11-05T17:12:17.691Z,98648.44
2022-11-05T17:14:44.179Z,98650.91
2022-11-05T17:17:10.783Z,98647.44
2022-11-05T17:19:42.131Z,98658.59
2022-11-05T17:22:08.762Z,98656.94
2022-11-05T17:24:35.414Z,98667.25
2022-11-05T17:27:01.810Z,98659.63
2022-11-05T17:29:28.277Z,98663.91
2022-11-05T17:31:54.973Z,98669.97
2022-11-05T17:34:21.467Z,98663.97
2022-11-05T17:36:47.880Z,98661.44
2022-11-05T17:39:14.247Z,98659.75
2022-11-05T17:41:40.676Z,98663.16
2022-11-05T17:44:07.054Z,98657.22
2022-11-05T17:46:33.456Z,98662.34
2022-11-05T17:48:59.848Z,98657.22
2022-11-05T17:51:26.256Z,98658.91
2022-11-05T17:53:52.674Z,98670.06
2022-11-05T17:56:30.587Z,98670.94
2022-11-05T17:59:00.647Z,98672.66
2022-11-05T18:01:32.846Z,98681.22
2022-11-05T18:04:03.813Z,98680.34
2022-11-05T18:06:34.924Z,98687.19
2022-11-05T18:09:01.677Z,98693.25
2022-11-05T18:11:28.119Z,98688.09
2022-11-05T18:13:54.550Z,98693.25
2022-11-05T18:16:21.081Z,98689.84
2022-11-05T18:18:49.183Z,98692.38
2022-11-05T18:21:15.971Z,98691.56
2022-11-05T18:23:42.720Z,98693.25
2022-11-05T18:26:10.296Z,98693.31
2022-11-05T18:28:37.580Z,98693.34
2022-11-05T18:31:08.224Z,98690.78
2022-11-05T18:33:34.782Z,98690.00
2022-11-05T18:36:01.204Z,98690.81
2022-11-05T18:38:27.594Z,98690.88
2022-11-05T18:40:54.068Z,98693.50
2022-11-05T18:43:20.465Z,98689.22
2022-11-05T18:45:54.917Z,98684.94
2022-11-05T18:48:21.335Z,98675.59
2022-11-05T18:50:47.740Z,98683.34
2022-11-05T18:53:14.157Z,98685.03
2022-11-05T18:55:40.835Z,98682.50
2022-11-05T18:58:07.942Z,98690.28
2022-11-05T19:00:35.345Z,98690.25
2022-11-05T19:03:01.856Z,98698.84
2022-11-05T19:05:30.360Z,98689.53
2022-11-05T19:07:56.894Z,98693.81
2022-11-05T19:10:23.745Z,98698.97
2022-11-05T19:12:50.254Z,98697.38
2022-11-05T19:15:16.997Z,98692.25
2022-11-05T19:17:43.430Z,98698.25
2022-11-05T19:20:11.290Z,98706.91
2022-11-05T19:22:37.751Z,98708.66
2022-11-05T19:25:05.130Z,98711.25
2022-11-05T19:27:31.736Z,98708.75
2022-11-05T19:29:58.149Z,98697.69
2022-11-05T19:32:24.595Z,98701.19
2022-11-05T19:34:51.037Z,98702.91
2022-11-05T19:37:17.541Z,98707.28
2022-11-05T19:39:44.048Z,98706.47
2022-11-05T19:42:10.447Z,98699.59
2022-11-05T19:44:36.997Z,98701.41
2022-11-05T19:47:03.460Z,98698.09
2022-11-05T19:49:29.927Z,98702.44
2022-11-05T19:51:56.387Z,98708.50
2022-11-05T19:54:22.926Z,98711.16
2022-11-05T19:56:51.684Z,98713.78
2022-11-05T19:59:18.589Z,98718.09
2022-11-05T20:01:45.139Z,98722.47
2022-11-05T20:04:11.981Z,98724.31
2022-11-05T20:06:40.043Z,98726.91
2022-11-05T20:09:27.407Z,98736.41
2022-11-05T20:11:56.175Z,98739.81
2022-11-05T20:14:24.733Z,98738.13
2022-11-05T20:16:51.483Z,98742.44
2022-11-05T20:19:21.270Z,98739.03
2022-11-05T20:21:48.439Z,98738.22
2022-11-05T20:24:22.367Z,98742.50
2022-11-05T20:26:50.433Z,98743.38
2022-11-05T20:29:16.978Z,98745.06
2022-11-05T20:31:43.422Z,98747.63
2022-11-05T20:34:21.418Z,98745.91
2022-11-05T20:36:47.993Z,98745.91
2022-11-05T20:39:14.389Z,98745.06
2022-11-05T20:41:41.012Z,98753.56
2022-11-05T20:44:07.574Z,98753.56
2022-11-05T20:46:34.003Z,98752.69
2022-11-05T20:49:00.510Z,98750.97
2022-11-05T20:51:27.101Z,98745.00
2022-11-05T20:53:58.615Z,98747.53
2022-11-05T20:56:29.344Z,98749.25
2022-11-05T20:58:58.347Z,98757.78
2022-11-05T21:01:26.566Z,98753.50
2022-11-05T21:03:53.736Z,98762.06
2022-11-05T21:06:20.162Z,98767.19
2022-11-05T21:08:48.651Z,98763.75
2022-11-05T21:11:15.140Z,98763.75
2022-11-05T21:13:41.896Z,98771.44
2022-11-05T21:16:14.018Z,98774.84
2022-11-05T21:18:43.488Z,98770.56
2022-11-05T21:21:13.555Z,98771.38
2022-11-05T21:23:41.662Z,98773.06
2022-11-05T21:26:11.301Z,98776.47
2022-11-05T21:28:39.942Z,98777.28
2022-11-05T21:31:07.376Z,98770.44
2022-11-05T21:33:33.947Z,98767.00
2022-11-05T21:36:07.309Z,98767.00
2022-11-05T21:38:33.739Z,98765.31
2022-11-05T21:41:01.884Z,98764.41
2022-11-05T21:43:28.518Z,98766.13
2022-11-05T21:45:54.909Z,98767.00
2022-11-05T21:48:21.350Z,98767.81
2022-11-05T21:51:10.342Z,98763.53
2022-11-05T21:53:55.137Z,98761.84
2022-11-05T21:56:43.034Z,98761.84
2022-11-05T21:59:32.061Z,98766.09
2022-11-05T22:02:02.036Z,98753.28
2022-11-05T22:04:30.450Z,98752.47
2022-11-05T22:06:57.052Z,98746.47
2022-11-05T22:09:24.252Z,98752.50
2022-11-05T22:11:51.144Z,98755.09
2022-11-05T22:14:17.977Z,98746.66
2022-11-05T22:16:44.372Z,98754.41
2022-11-05T22:19:10.869Z,98754.47
2022-11-05T22:21:37.293Z,98752.00
2022-11-05T22:24:04.930Z,98753.75
2022-11-05T22:26:31.821Z,98762.38
2022-11-05T22:28:58.222Z,98760.69
2022-11-05T22:31:24.629Z,98759.88
2022-11-05T22:33:51.118Z,98756.50
2022-11-05T22:36:17.786Z,98759.13
2022-11-05T22:38:44.265Z,98759.16
2022-11-05T22:41:17.339Z,98760.88
2022-11-05T22:43:44.753Z,98760.88
2022-11-05T22:46:13.808Z,98753.19
2022-11-05T22:48:41.647Z,98756.63
2022-11-05T22:51:11.573Z,98750.66
2022-11-05T22:53:39.006Z,98759.22
2022-11-05T22:56:07.407Z,98757.50
2022-11-05T22:58:34.216Z,98754.09
2022-11-05T23:01:01.539Z,98755.84
2022-11-05T23:03:29.346Z,98750.72
2022-11-05T23:06:04.522Z,98750.75
2022-11-05T23:08:50.590Z,98756.72
2022-11-05T23:11:35.551Z,98749.91
2022-11-05T23:14:02.946Z,98746.47
2022-11-05T23:16:55.673Z,98752.47
2022-11-05T23:19:41.670Z,98745.66
2022-11-05T23:22:37.753Z,98743.97
2022-11-05T23:25:06.548Z,98752.50
2022-11-05T23:27:34.863Z,98742.28
2022-11-05T23:30:04.981Z,98751.66
2022-11-05T23:32:32.896Z,98744.84
2022-11-05T23:34:59.946Z,98741.44
2022-11-05T23:37:49.214Z,98742.28
2022-11-05T23:40:24.901Z,98743.97
2022-11-05T23:43:09.972Z,98750.84
2022-11-05T23:45:59.045Z,98744.00
2022-11-05T23:48:34.929Z,98747.41
2022-11-05T23:51:09.552Z,98744.00
2022-11-05T23:53:37.823Z,98736.38
2022-11-05T23:56:11.356Z,98738.06
2022-11-05T23:58:39.023Z,98741.50
